Time;durP1;ratioP1;P1;durP2;ratioP2;P2;SDS_P1;SDS_P2;PMS_P1;PMS_P2;Temp;Humidity;BMP_temperature;BMP_pressure;BME280_temperature;BME280_humidity;BME280_pressure;Samples;Min_cycle;Max_cycle;Signal;HPM_P1;HPM_P2
2023/06/07 00:00:13;;;;;;;7.53;4.93;;;19.50;99.90;;;;;;5076228;28;20467;-82
2023/06/07 00:02:41;;;;;;;7.97;4.70;;;19.50;99.90;;;;;;5075217;28;20462;-81
2023/06/07 00:05:09;;;;;;;5.50;4.10;;;19.50;99.90;;;;;;5075791;28;20451;-82
2023/06/07 00:07:38;;;;;;;7.10;4.50;;;19.50;99.90;;;;;;5075817;28;20439;-81
2023/06/07 00:10:05;;;;;;;7.27;4.70;;;19.50;80.10;;;;;;5075303;28;20462;-82
2023/06/07 00:12:32;;;;;;;8.50;4.90;;;19.50;62.30;;;;;;5075779;28;20450;-80
2023/06/07 00:15:00;;;;;;;8.73;4.80;;;19.50;68.10;;;;;;5075614;28;20475;-82
2023/06/07 00:17:27;;;;;;;6.10;4.33;;;19.60;71.20;;;;;;5075419;28;20858;-83
2023/06/07 00:19:55;;;;;;;6.80;4.43;;;19.60;35.20;;;;;;5075536;28;20450;-81
2023/06/07 00:22:22;;;;;;;9.00;4.70;;;19.60;28.30;;;;;;5075414;28;20451;-80
2023/06/07 00:24:51;;;;;;;5.40;4.17;;;19.70;28.10;;;;;;5075367;28;20954;-82
2023/06/07 00:27:19;;;;;;;6.03;3.87;;;19.60;8.50;;;;;;5075858;28;20455;-81
2023/06/07 00:29:46;;;;;;;8.53;4.17;;;19.60;15.90;;;;;;5075779;28;20451;-82
2023/06/07 00:32:12;;;;;;;7.93;5.27;;;19.60;90.80;;;;;;5075667;28;20451;-80
2023/06/07 00:34:39;;;;;;;9.07;4.63;;;19.60;61.70;;;;;;5074834;28;20470;-80
2023/06/07 00:37:06;;;;;;;9.60;4.40;;;19.60;99.90;;;;;;5075601;28;20874;-81
2023/06/07 00:39:33;;;;;;;8.33;4.67;;;19.60;21.20;;;;;;5075063;28;20462;-81
2023/06/07 00:42:01;;;;;;;7.33;4.67;;;19.60;1.00;;;;;;5076197;28;20446;-82
2023/06/07 00:44:28;;;;;;;8.90;4.97;;;19.60;34.90;;;;;;5073979;28;20467;-78
2023/06/07 00:46:54;;;;;;;9.03;4.37;;;19.60;25.30;;;;;;5075965;28;20455;-81
2023/06/07 00:49:22;;;;;;;8.70;4.80;;;19.60;1.00;;;;;;5075616;28;20455;-81
2023/06/07 00:51:49;;;;;;;8.73;4.40;;;19.60;4.00;;;;;;5074655;28;20465;-81
2023/06/07 00:54:17;;;;;;;7.50;4.07;;;19.60;1.00;;;;;;5074685;28;20482;-81
2023/06/07 00:56:45;;;;;;;4.93;3.87;;;19.50;1.00;;;;;;5075837;28;20453;-81
2023/06/07 00:59:13;;;;;;;7.60;4.60;;;19.50;1.00;;;;;;5079828;28;20490;-82
2023/06/07 01:01:41;;;;;;;6.30;3.97;;;19.50;1.00;;;;;;5081940;28;20465;-82
2023/06/07 01:04:09;;;;;;;10.67;4.47;;;19.50;1.00;;;;;;5082104;28;20986;-81
2023/06/07 01:06:37;;;;;;;7.70;4.73;;;19.50;1.00;;;;;;5082321;28;20537;-80
2023/06/07 01:09:05;;;;;;;6.00;4.20;;;19.50;1.00;;;;;;5082341;28;21037;-81
2023/06/07 01:11:33;;;;;;;6.73;4.20;;;19.50;1.00;;;;;;5081810;28;20446;-80
2023/06/07 01:14:01;;;;;;;7.00;3.70;;;19.50;1.00;;;;;;5080750;28;20466;-82
2023/06/07 01:16:29;;;;;;;6.60;3.73;;;19.50;1.00;;;;;;5082355;28;20457;-82
2023/06/07 01:18:56;;;;;;;6.60;4.10;;;19.40;1.00;;;;;;5082395;28;20489;-80
2023/06/07 01:21:23;;;;;;;6.30;4.30;;;19.40;1.00;;;;;;5082219;28;20451;-81
2023/06/07 01:23:52;;;;;;;5.80;3.70;;;19.40;1.00;;;;;;5080617;28;20473;-81
2023/06/07 01:26:19;;;;;;;10.83;5.37;;;19.40;1.00;;;;;;5081949;28;20445;-80
2023/06/07 01:28:46;;;;;;;7.30;3.97;;;19.40;1.00;;;;;;5081451;28;20946;-80
2023/06/07 01:31:14;;;;;;;6.27;4.13;;;19.30;1.00;;;;;;5082045;28;20439;-81
2023/06/07 01:33:42;;;;;;;7.53;4.60;;;19.30;1.00;;;;;;5081567;28;20468;-80
2023/06/07 01:36:11;;;;;;;7.17;3.97;;;19.30;1.00;;;;;;5082727;28;20490;-80
2023/06/07 01:38:40;;;;;;;5.80;4.33;;;19.20;1.00;;;;;;5082475;28;21134;-79
2023/06/07 01:41:10;;;;;;;4.23;3.20;;;19.20;1.00;;;;;;5082409;28;20454;-81
2023/06/07 01:43:38;;;;;;;8.30;4.60;;;19.20;1.00;;;;;;5080634;28;20474;-80
2023/06/07 01:46:06;;;;;;;5.50;3.87;;;19.20;1.00;;;;;;5083183;28;20458;-80
2023/06/07 01:48:33;;;;;;;7.33;4.10;;;19.10;1.00;;;;;;5082880;28;20788;-80
2023/06/07 01:51:00;;;;;;;6.97;3.63;;;19.10;1.00;;;;;;5082366;28;20450;-81
2023/06/07 01:53:29;;;;;;;6.10;3.70;;;19.10;1.00;;;;;;5081518;28;20474;-81
2023/06/07 01:56:03;;;;;;;8.90;3.77;;;19.10;1.00;;;;;;5082889;28;20940;-81
2023/06/07 01:58:37;;;;;;;8.57;4.27;;;19.10;1.00;;;;;;5065218;28;20469;-81
2023/06/07 02:01:16;;;;;;;7.17;3.87;;;19.10;1.00;;;;;;5082550;28;20438;-81
2023/06/07 02:03:49;;;;;;;8.17;4.07;;;19.00;1.00;;;;;;5081936;28;21206;-81
2023/06/07 02:06:21;;;;;;;6.70;4.20;;;19.00;1.00;;;;;;5083388;28;20448;-81
2023/06/07 02:08:53;;;;;;;6.50;3.83;;;19.00;1.00;;;;;;5083175;28;20434;-81
2023/06/07 02:11:23;;;;;;;6.00;3.97;;;19.00;1.00;;;;;;5078758;28;20809;-80
2023/06/07 02:13:52;;;;;;;7.17;3.60;;;19.00;1.00;;;;;;5078158;28;21125;-80
2023/06/07 02:16:32;;;;;;;6.20;3.87;;;19.00;1.00;;;;;;5079007;28;20455;-80
2023/06/07 02:18:59;;;;;;;5.60;3.93;;;18.90;1.00;;;;;;5078403;28;20482;-80
2023/06/07 02:21:26;;;;;;;6.60;4.27;;;18.90;1.00;;;;;;5078147;28;20488;-81
2023/06/07 02:23:53;;;;;;;5.30;3.67;;;18.90;1.00;;;;;;5078610;28;20473;-81
2023/06/07 02:26:20;;;;;;;5.10;3.77;;;18.90;1.00;;;;;;5078482;28;20979;-81
2023/06/07 02:28:47;;;;;;;6.50;3.60;;;18.90;1.00;;;;;;5078475;28;20450;-81
2023/06/07 02:31:17;;;;;;;8.43;4.90;;;18.90;1.00;;;;;;5078475;28;20472;-80
2023/06/07 02:33:43;;;;;;;12.73;4.67;;;18.80;1.00;;;;;;5077214;28;20478;-80
2023/06/07 02:36:12;;;;;;;6.20;3.97;;;18.80;1.00;;;;;;5078306;28;20454;-81
2023/06/07 02:38:39;;;;;;;8.00;4.40;;;18.80;1.00;;;;;;5078867;28;20536;-80
2023/06/07 02:41:06;;;;;;;7.23;4.17;;;18.80;1.00;;;;;;5078609;28;20540;-81
2023/06/07 02:43:33;;;;;;;5.77;3.50;;;18.80;1.00;;;;;;5077153;28;20475;-81
2023/06/07 02:45:59;;;;;;;6.33;4.50;;;18.70;1.00;;;;;;5078646;28;20975;-80
2023/06/07 02:48:27;;;;;;;6.40;4.43;;;18.70;1.00;;;;;;5078359;28;20959;-81
2023/06/07 02:50:54;;;;;;;7.80;4.03;;;18.70;1.00;;;;;;5077908;28;20455;-80
2023/06/07 02:53:22;;;;;;;12.50;4.30;;;18.70;1.00;;;;;;5077008;28;20486;-81
2023/06/07 02:55:49;;;;;;;5.13;3.83;;;18.70;1.00;;;;;;5078109;28;20466;-80
2023/06/07 02:58:15;;;;;;;4.87;4.07;;;18.60;1.00;;;;;;5077329;28;21025;-81
2023/06/07 03:00:49;;;;;;;5.93;4.17;;;18.60;1.00;;;;;;5078004;28;20851;-81
2023/06/07 03:03:16;;;;;;;6.00;4.00;;;18.60;1.00;;;;;;5076697;28;20528;-80
2023/06/07 03:05:46;;;;;;;8.33;4.90;;;18.60;1.00;;;;;;5077707;28;20987;-80
2023/06/07 03:08:13;;;;;;;7.47;4.70;;;18.50;1.00;;;;;;5077379;28;20515;-80
2023/06/07 03:10:40;;;;;;;5.90;4.20;;;18.50;1.00;;;;;;5077751;28;20462;-80
2023/06/07 03:13:07;;;;;;;7.53;4.10;;;18.50;1.00;;;;;;5076316;28;20848;-80
2023/06/07 03:15:35;;;;;;;8.53;4.33;;;18.50;1.00;;;;;;5076957;28;20461;-80
2023/06/07 03:18:03;;;;;;;8.33;5.07;;;18.50;1.00;;;;;;5077509;28;20461;-81
2023/06/07 03:20:33;;;;;;;8.20;5.07;;;18.50;1.00;;;;;;5076970;28;20462;-80
2023/06/07 03:23:02;;;;;;;5.87;4.57;;;18.50;1.00;;;;;;5075313;28;20477;-80
2023/06/07 03:25:29;;;;;;;7.23;5.07;;;18.40;1.00;;;;;;5077220;28;20449;-80
2023/06/07 03:27:56;;;;;;;8.87;5.70;;;18.40;1.00;;;;;;5077136;28;20970;-80
2023/06/07 03:30:23;;;;;;;5.83;4.13;;;18.40;16.30;;;;;;5076791;28;20474;-80
2023/06/07 03:32:50;;;;;;;7.33;4.57;;;18.40;19.20;;;;;;5076086;28;20462;-80
2023/06/07 03:35:17;;;;;;;8.43;5.47;;;18.40;84.60;;;;;;5077166;28;20458;-81
2023/06/07 03:37:44;;;;;;;7.20;4.90;;;18.40;99.90;;;;;;5077200;28;20457;-79
2023/06/07 03:40:13;;;;;;;8.50;4.97;;;18.40;43.50;;;;;;5076433;28;20477;-80
2023/06/07 03:42:40;;;;;;;7.47;4.50;;;18.40;82.70;;;;;;5073311;28;20459;-79
2023/06/07 03:45:08;;;;;;;9.20;4.93;;;18.40;73.20;;;;;;5073534;28;20460;-79
2023/06/07 03:47:34;;;;;;;6.77;4.17;;;18.40;99.90;;;;;;5074446;28;20452;-79
2023/06/07 03:50:01;;;;;;;6.80;4.87;;;18.30;99.90;;;;;;5073783;28;20454;-78
2023/06/07 03:52:28;;;;;;;11.17;4.43;;;18.30;91.30;;;;;;5073324;28;20460;-77
2023/06/07 03:54:55;;;;;;;7.57;5.17;;;18.30;99.90;;;;;;5073399;28;20481;-78
2023/06/07 03:57:23;;;;;;;6.80;5.30;;;18.30;99.90;;;;;;5073427;28;20960;-78
2023/06/07 03:59:50;;;;;;;9.70;4.90;;;18.20;99.90;;;;;;5073153;28;20915;-78
2023/06/07 04:02:17;;;;;;;8.70;5.20;;;18.20;99.90;;;;;;5073672;28;20473;-79
2023/06/07 04:04:44;;;;;;;7.83;5.07;;;18.20;99.90;;;;;;5072125;28;20528;-78
2023/06/07 04:07:11;;;;;;;6.37;5.03;;;18.10;99.90;;;;;;5073045;28;20458;-79
2023/06/07 04:09:39;;;;;;;6.73;4.73;;;18.10;99.90;;;;;;5072714;28;20553;-77
2023/06/07 04:12:07;;;;;;;7.40;5.43;;;18.00;99.90;;;;;;5072483;28;20523;-79
2023/06/07 04:14:35;;;;;;;7.37;4.80;;;18.00;99.90;;;;;;5071946;28;20466;-78
2023/06/07 04:17:02;;;;;;;8.43;5.47;;;18.00;1.00;;;;;;5072618;28;20446;-77
2023/06/07 04:19:29;;;;;;;6.30;5.10;;;18.00;30.90;;;;;;5072843;28;20485;-78
2023/06/07 04:21:56;;;;;;;8.33;5.23;;;17.90;99.90;;;;;;5073045;28;20449;-78
2023/06/07 04:24:23;;;;;;;9.50;6.10;;;17.90;99.90;;;;;;5073021;28;20477;-78
2023/06/07 04:26:49;;;;;;;9.57;6.47;;;17.90;99.90;;;;;;5073817;28;20454;-79
2023/06/07 04:29:20;;;;;;;9.40;5.60;;;17.80;1.00;;;;;;5073575;28;20452;-77
2023/06/07 04:31:49;;;;;;;9.10;5.90;;;17.80;99.90;;;;;;5074321;28;20449;-79
2023/06/07 04:34:17;;;;;;;10.63;6.43;;;17.80;31.50;;;;;;5074446;28;20530;-79
2023/06/07 04:36:49;;;;;;;10.60;6.67;;;17.70;1.00;;;;;;5076481;28;20542;-80
2023/06/07 04:39:16;;;;;;;11.37;6.50;;;17.70;99.90;;;;;;5076346;28;20530;-80
2023/06/07 04:41:42;;;;;;;8.33;5.83;;;17.70;99.90;;;;;;5076751;28;20492;-80
2023/06/07 04:44:11;;;;;;;10.80;7.47;;;17.60;1.00;;;;;;5076081;28;20481;-79
2023/06/07 04:46:39;;;;;;;9.70;6.70;;;17.50;8.80;;;;;;5077133;28;20452;-80
2023/06/07 04:49:07;;;;;;;14.93;6.93;;;17.50;99.90;;;;;;5076926;28;20479;-80
2023/06/07 04:51:36;;;;;;;13.03;6.43;;;17.40;99.90;;;;;;5076907;28;20455;-79
2023/06/07 04:56:35;;;;;;;13.00;7.50;;;17.30;99.90;;;;;;5099758;28;20479;-82
2023/06/07 04:59:02;;;;;;;12.17;6.80;;;17.20;99.90;;;;;;5101798;28;20489;-83
2023/06/07 05:01:32;;;;;;;9.47;6.20;;;17.10;99.90;;;;;;5100002;28;20523;-83
2023/06/07 05:04:01;;;;;;;11.80;6.97;;;17.10;99.90;;;;;;5100870;28;20858;-82
2023/06/07 05:06:31;;;;;;;8.87;7.03;;;17.10;99.90;;;;;;5100656;28;20462;-82
2023/06/07 05:08:57;;;;;;;12.27;6.93;;;17.10;99.90;;;;;;5100905;28;20557;-83
2023/06/07 05:11:24;;;;;;;13.37;7.77;;;17.00;99.90;;;;;;5100639;28;20466;-82
2023/06/07 05:13:51;;;;;;;7.87;6.57;;;17.00;99.90;;;;;;5098825;28;20450;-83
2023/06/07 05:16:19;;;;;;;10.27;7.30;;;17.00;99.90;;;;;;5102473;28;20531;-83
2023/06/07 05:18:48;;;;;;;9.60;6.90;;;17.00;99.90;;;;;;5102939;28;20572;-83
2023/06/07 05:21:15;;;;;;;10.83;7.07;;;17.00;99.90;;;;;;5100592;28;20505;-82
2023/06/07 05:23:44;;;;;;;8.77;7.37;;;16.90;99.90;;;;;;5099275;28;20483;-82
2023/06/07 05:26:11;;;;;;;9.63;6.90;;;17.00;99.90;;;;;;5103247;28;20471;-83
2023/06/07 05:28:38;;;;;;;9.40;6.13;;;16.90;99.90;;;;;;5099398;28;20458;-83
2023/06/07 05:31:04;;;;;;;10.83;6.20;;;16.90;99.90;;;;;;5099430;28;20516;-84
2023/06/07 05:33:31;;;;;;;10.97;7.00;;;16.90;99.90;;;;;;5106686;28;20452;-83
2023/06/07 05:35:58;;;;;;;14.90;7.07;;;16.90;44.00;;;;;;5115280;28;20474;-82
2023/06/07 05:38:25;;;;;;;9.70;7.07;;;16.90;1.00;;;;;;5117040;28;20433;-83
2023/06/07 05:40:54;;;;;;;11.43;7.50;;;17.00;99.90;;;;;;5109678;28;20491;-83
2023/06/07 05:43:21;;;;;;;12.83;7.30;;;17.00;1.00;;;;;;5096697;28;20451;-84
2023/06/07 05:45:47;;;;;;;12.73;7.53;;;17.00;1.00;;;;;;5101304;28;20505;-83
2023/06/07 05:48:14;;;;;;;8.23;6.27;;;17.00;1.00;;;;;;5104017;28;20448;-83
2023/06/07 05:50:41;;;;;;;9.30;6.87;;;17.00;1.00;;;;;;5103728;28;20446;-83
2023/06/07 05:53:08;;;;;;;10.83;6.93;;;16.90;1.00;;;;;;5115408;28;20764;-80
2023/06/07 05:55:36;;;;;;;12.00;7.37;;;16.90;4.10;;;;;;5111657;28;20556;-80
2023/06/07 05:58:04;;;;;;;10.67;8.00;;;16.90;99.90;;;;;;5107403;28;20451;-83
2023/06/07 06:00:31;;;;;;;7.43;6.63;;;16.90;99.90;;;;;;5103291;28;20990;-82
2023/06/07 06:03:01;;;;;;;11.87;7.33;;;16.80;99.90;;;;;;5101541;28;20441;-83
2023/06/07 06:05:28;;;;;;;10.73;8.00;;;16.90;99.90;;;;;;5101365;28;20485;-83
2023/06/07 06:07:55;;;;;;;11.90;7.60;;;16.80;99.90;;;;;;5100686;28;20545;-83
2023/06/07 06:10:22;;;;;;;10.20;7.60;;;16.80;99.90;;;;;;5101583;28;20448;-82
2023/06/07 06:12:49;;;;;;;8.37;6.57;;;16.90;99.90;;;;;;5101426;28;20561;-79
2023/06/07 06:15:17;;;;;;;11.53;7.43;;;16.90;99.90;;;;;;5101615;28;20473;-81
2023/06/07 06:17:44;;;;;;;8.57;7.10;;;16.80;1.00;;;;;;5102660;28;20448;-80
2023/06/07 06:20:12;;;;;;;9.73;7.27;;;16.80;1.00;;;;;;5102425;28;20479;-80
2023/06/07 06:22:39;;;;;;;12.53;7.13;;;16.80;1.00;;;;;;5102302;28;20798;-81
2023/06/07 06:25:07;;;;;;;8.03;6.33;;;16.80;99.90;;;;;;5101395;28;20475;-81
2023/06/07 06:27:33;;;;;;;13.13;8.00;;;16.80;99.90;;;;;;5101073;28;20454;-83
2023/06/07 06:30:00;;;;;;;9.40;6.70;;;16.80;99.90;;;;;;5100880;28;20495;-82
2023/06/07 06:32:28;;;;;;;12.83;7.40;;;16.80;1.00;;;;;;5100643;28;20452;-82
2023/06/07 06:34:55;;;;;;;11.90;8.70;;;16.80;94.20;;;;;;5100220;28;20470;-82
2023/06/07 06:37:23;;;;;;;10.37;6.70;;;16.80;99.90;;;;;;5101615;28;20451;-83
2023/06/07 06:39:51;;;;;;;9.43;7.03;;;16.80;99.90;;;;;;5101063;28;20482;-81
2023/06/07 06:42:18;;;;;;;11.37;7.60;;;16.90;99.90;;;;;;5100438;28;20537;-80
2023/06/07 06:44:45;;;;;;;9.20;7.27;;;16.90;79.70;;;;;;5098499;28;20483;-82
2023/06/07 06:47:11;;;;;;;9.97;7.30;;;16.90;99.90;;;;;;5100046;28;20896;-82
2023/06/07 06:49:40;;;;;;;10.03;7.53;;;16.90;99.90;;;;;;5101307;28;20509;-82
2023/06/07 06:52:07;;;;;;;9.80;7.37;;;16.90;99.90;;;;;;5100424;28;20915;-81
2023/06/07 06:54:34;;;;;;;10.67;7.40;;;16.90;99.90;;;;;;5099728;28;20478;-81
2023/06/07 06:57:01;;;;;;;9.00;7.60;;;16.90;99.90;;;;;;5100500;28;20450;-83
2023/06/07 06:59:28;;;;;;;10.37;7.80;;;17.00;99.90;;;;;;5100347;28;20511;-80
2023/06/07 07:01:56;;;;;;;10.60;8.37;;;17.10;99.90;;;;;;5100493;28;21016;-81
2023/06/07 07:04:23;;;;;;;9.60;8.00;;;17.20;99.90;;;;;;5099563;28;20918;-81
2023/06/07 07:06:51;;;;;;;13.57;8.00;;;17.20;99.90;;;;;;5099490;28;20448;-82
2023/06/07 07:09:18;;;;;;;9.43;7.37;;;17.20;99.90;;;;;;5099763;28;20443;-81
2023/06/07 07:11:45;;;;;;;10.30;7.50;;;17.20;99.90;;;;;;5099743;28;20457;-81
2023/06/07 07:14:11;;;;;;;9.07;7.57;;;17.10;99.90;;;;;;5098580;28;20996;-82
2023/06/07 07:16:39;;;;;;;15.40;8.00;;;17.10;99.90;;;;;;5099324;28;20464;-81
2023/06/07 07:19:06;;;;;;;11.13;8.00;;;17.10;99.90;;;;;;5100094;28;20545;-82
2023/06/07 07:21:33;;;;;;;13.07;7.77;;;17.10;99.90;;;;;;5100022;28;20454;-82
2023/06/07 07:24:01;;;;;;;12.07;7.40;;;17.00;89.00;;;;;;5099697;28;20488;-81
2023/06/07 07:26:28;;;;;;;11.97;7.53;;;17.00;99.90;;;;;;5099781;28;20445;-82
2023/06/07 07:28:55;;;;;;;14.70;9.20;;;16.90;99.90;;;;;;5100480;28;20466;-82
2023/06/07 07:31:22;;;;;;;8.90;7.80;;;17.00;99.90;;;;;;5100092;28;20526;-83
2023/06/07 07:33:48;;;;;;;11.40;8.17;;;16.90;99.90;;;;;;5099191;28;20444;-83
2023/06/07 07:36:17;;;;;;;17.53;8.87;;;16.90;99.90;;;;;;5100191;28;20517;-81
2023/06/07 07:38:47;;;;;;;11.10;9.30;;;16.90;1.00;;;;;;5099138;28;20456;-80
2023/06/07 07:41:15;;;;;;;11.63;8.83;;;16.90;1.00;;;;;;5098857;28;20577;-80
2023/06/07 07:43:42;;;;;;;13.30;11.40;;;16.90;1.00;;;;;;5096488;28;20549;-79
2023/06/07 07:46:08;;;;;;;14.00;8.87;;;16.90;1.00;;;;;;5097230;28;20484;-81
2023/06/07 07:48:36;;;;;;;15.43;8.93;;;16.90;1.00;;;;;;5097134;28;20462;-79
2023/06/07 07:51:03;;;;;;;14.43;9.70;;;16.80;1.00;;;;;;5098166;28;20443;-78
2023/06/07 07:53:31;;;;;;;12.47;10.50;;;16.90;1.00;;;;;;5097208;28;20525;-80
2023/06/07 07:55:58;;;;;;;14.60;10.20;;;16.90;1.00;;;;;;5096994;28;20886;-80
2023/06/07 07:58:26;;;;;;;15.47;10.70;;;16.80;1.00;;;;;;5098175;28;20447;-78
2023/06/07 08:00:53;;;;;;;11.53;9.17;;;16.90;1.00;;;;;;5098020;28;20488;-80
2023/06/07 08:03:21;;;;;;;14.83;10.63;;;16.90;1.00;;;;;;5096855;28;20881;-81
2023/06/07 08:05:47;;;;;;;13.63;9.60;;;17.00;1.00;;;;;;5097787;28;20503;-80
2023/06/07 08:08:16;;;;;;;12.40;9.30;;;17.00;1.00;;;;;;5097927;28;20503;-80
2023/06/07 08:10:43;;;;;;;16.00;10.50;;;16.90;1.00;;;;;;5098416;28;20861;-81
2023/06/07 08:13:09;;;;;;;15.93;9.80;;;16.90;1.00;;;;;;5097641;28;20456;-79
2023/06/07 08:15:37;;;;;;;15.80;10.00;;;16.90;1.00;;;;;;5097831;28;20539;-82
2023/06/07 08:18:05;;;;;;;13.17;10.23;;;16.80;1.00;;;;;;5097799;28;20450;-82
2023/06/07 08:20:32;;;;;;;16.67;10.60;;;16.70;1.00;;;;;;5097659;28;20477;-83
2023/06/07 08:22:58;;;;;;;18.03;10.10;;;16.60;1.00;;;;;;5098389;28;20467;-83
2023/06/07 08:25:25;;;;;;;14.07;10.50;;;16.60;1.00;;;;;;5098023;28;20554;-82
2023/06/07 08:27:52;;;;;;;13.27;11.77;;;16.60;1.00;;;;;;5099436;28;20522;-81
2023/06/07 08:30:19;;;;;;;16.37;11.30;;;16.60;1.00;;;;;;5100637;28;20926;-82
2023/06/07 08:32:47;;;;;;;17.40;11.73;;;16.70;1.00;;;;;;5098099;28;20497;-81
2023/06/07 08:35:14;;;;;;;13.53;11.77;;;16.70;1.00;;;;;;5098691;28;20476;-82
2023/06/07 08:37:41;;;;;;;16.37;10.97;;;16.70;1.00;;;;;;5098615;28;20445;-82
2023/06/07 08:40:10;;;;;;;17.93;11.90;;;16.80;1.00;;;;;;5098808;28;20481;-81
2023/06/07 08:42:39;;;;;;;12.60;10.20;;;16.80;1.00;;;;;;5100165;28;20541;-82
2023/06/07 08:45:07;;;;;;;16.70;11.93;;;16.90;1.00;;;;;;5098572;28;20463;-82
2023/06/07 08:47:35;;;;;;;13.43;11.60;;;17.10;1.00;;;;;;5101160;28;20514;-82
2023/06/07 08:50:04;;;;;;;15.23;11.70;;;17.20;1.00;;;;;;5100895;28;20446;-81
2023/06/07 08:52:32;;;;;;;13.40;10.87;;;17.20;1.00;;;;;;5099509;28;20870;-81
2023/06/07 08:55:03;;;;;;;17.63;11.47;;;17.30;1.00;;;;;;5099683;28;20479;-81
2023/06/07 08:57:31;;;;;;;15.30;12.80;;;17.30;1.00;;;;;;5101337;28;20460;-82
2023/06/07 09:00:00;;;;;;;13.70;12.27;;;17.30;1.00;;;;;;5100076;28;20476;-82
2023/06/07 09:02:27;;;;;;;15.90;13.17;;;17.40;1.00;;;;;;5098499;28;20455;-82
2023/06/07 09:04:54;;;;;;;18.87;13.50;;;17.40;1.00;;;;;;5100348;28;20474;-85
2023/06/07 09:07:22;;;;;;;18.70;13.67;;;17.30;1.00;;;;;;5099349;28;20450;-84
2023/06/07 09:09:49;;;;;;;17.27;13.13;;;17.30;1.00;;;;;;5099541;28;20452;-83
2023/06/07 09:12:16;;;;;;;19.60;15.77;;;17.40;1.00;;;;;;5108529;28;20519;-81
2023/06/07 09:14:43;;;;;;;18.43;15.17;;;17.30;1.00;;;;;;5114452;28;20481;-83
2023/06/07 09:17:10;;;;;;;20.67;15.37;;;17.30;1.00;;;;;;5111205;28;20451;-82
2023/06/07 09:19:38;;;;;;;16.83;14.30;;;17.30;1.00;;;;;;5102775;28;20940;-83
2023/06/07 09:22:06;;;;;;;17.80;15.53;;;17.40;1.00;;;;;;5104030;28;20537;-84
2023/06/07 09:24:35;;;;;;;20.67;16.70;;;17.50;1.00;;;;;;5104393;28;20479;-83
2023/06/07 09:27:03;;;;;;;19.03;16.77;;;17.50;1.00;;;;;;5103400;28;20453;-82
2023/06/07 09:29:38;;;;;;;17.80;15.30;;;17.50;1.00;;;;;;5103306;28;20520;-81
2023/06/07 09:32:18;;;;;;;21.50;15.17;;;17.50;1.00;;;;;;5101933;28;20427;-84
2023/06/07 09:34:45;;;;;;;15.73;14.10;;;17.60;1.00;;;;;;5102828;28;20490;-83
2023/06/07 09:37:12;;;;;;;17.33;13.70;;;17.60;1.00;;;;;;5104379;28;20465;-82
2023/06/07 09:39:40;;;;;;;18.33;16.07;;;17.60;1.00;;;;;;5101508;28;20460;-82
2023/06/07 09:42:16;;;;;;;20.20;15.47;;;17.60;1.00;;;;;;5101775;28;20498;-82
2023/06/07 09:44:42;;;;;;;20.03;16.47;;;17.70;1.00;;;;;;5099586;28;20889;-83
2023/06/07 09:47:21;;;;;;;21.50;18.30;;;17.70;1.00;;;;;;5102469;28;20952;-83
2023/06/07 09:49:48;;;;;;;16.97;15.17;;;17.80;1.00;;;;;;5101617;28;20435;-83
2023/06/07 09:52:15;;;;;;;21.90;17.27;;;17.80;1.00;;;;;;5102558;28;20452;-81
2023/06/07 09:54:45;;;;;;;19.40;16.47;;;17.80;1.00;;;;;;5103495;28;20488;-83
2023/06/07 09:57:13;;;;;;;19.87;16.80;;;17.80;1.00;;;;;;5118611;28;20486;-83
2023/06/07 09:59:57;;;;;;;20.00;16.57;;;17.80;1.00;;;;;;5104483;28;20483;-83
2023/06/07 10:02:26;;;;;;;19.37;17.10;;;17.80;1.00;;;;;;5102662;28;20443;-80
2023/06/07 10:04:55;;;;;;;20.00;16.30;;;17.80;1.00;;;;;;5102632;28;20471;-83
2023/06/07 10:07:23;;;;;;;21.00;16.73;;;17.90;1.00;;;;;;5100378;28;20880;-82
2023/06/07 10:09:54;;;;;;;18.40;15.63;;;18.00;1.00;;;;;;5100583;28;20505;-81
2023/06/07 10:12:23;;;;;;;19.77;16.40;;;18.10;1.00;;;;;;5099664;28;20899;-80
2023/06/07 10:14:53;;;;;;;19.10;15.47;;;18.20;1.00;;;;;;5100029;28;20473;-82
2023/06/07 10:17:26;;;;;;;19.37;15.90;;;18.30;1.00;;;;;;5100305;28;20441;-83
2023/06/07 10:19:59;;;;;;;17.60;14.97;;;18.40;1.00;;;;;;5100587;28;20434;-83
2023/06/07 10:22:29;;;;;;;19.50;15.50;;;18.50;1.00;;;;;;5099558;28;20465;-80
2023/06/07 10:25:04;;;;;;;17.40;15.03;;;18.80;1.00;;;;;;5099837;28;20505;-82
2023/06/07 10:27:35;;;;;;;20.60;15.93;;;19.10;1.00;;;;;;5100452;28;20464;-81
2023/06/07 10:30:08;;;;;;;19.20;14.17;;;19.30;1.00;;;;;;5100296;28;20448;-80
2023/06/07 10:32:38;;;;;;;18.43;14.90;;;19.50;1.00;;;;;;5099262;28;20448;-81
2023/06/07 10:35:08;;;;;;;19.13;15.50;;;19.70;1.00;;;;;;5100737;28;20473;-80
2023/06/07 10:37:35;;;;;;;26.23;15.60;;;19.90;1.00;;;;;;5100979;28;20507;-81
2023/06/07 10:40:10;;;;;;;19.50;15.37;;;20.20;99.90;;;;;;5101309;28;20454;-80
2023/06/07 10:42:37;;;;;;;18.27;15.67;;;20.60;1.00;;;;;;5101087;28;20438;-82
2023/06/07 10:45:05;;;;;;;19.37;13.80;;;21.30;1.00;;;;;;5099035;28;20471;-82
2023/06/07 10:47:32;;;;;;;24.43;14.13;;;21.90;99.90;;;;;;5100641;28;20454;-82
2023/06/07 10:49:59;;;;;;;19.23;15.20;;;22.20;99.90;;;;;;5101491;28;20537;-81
2023/06/07 10:52:27;;;;;;;17.90;14.87;;;22.60;99.90;;;;;;5100216;28;20457;-82
2023/06/07 10:54:55;;;;;;;17.17;13.87;;;23.00;1.00;;;;;;5113895;22;20474;-82
2023/06/07 10:57:34;;;;;;;14.90;13.50;;;23.00;1.00;;;;;;5060706;28;20452;-85
2023/06/07 11:00:30;;;;;;;14.90;13.40;;;22.90;1.00;;;;;;5059651;28;20440;-84
2023/06/07 11:03:39;;;;;;;14.00;12.37;;;22.50;99.90;;;;;;5049370;28;20532;-86
2023/06/07 11:06:09;;;;;;;14.80;12.80;;;22.30;1.00;;;;;;4977341;28;20470;-84
2023/06/07 11:08:40;;;;;;;16.70;14.80;;;22.40;1.00;;;;;;4977720;28;20483;-84
2023/06/07 11:11:50;;;;;;;16.20;14.30;;;22.70;1.00;;;;;;5024834;28;20562;-84
2023/06/07 11:14:19;;;;;;;15.90;13.80;;;22.90;99.90;;;;;;5058895;28;20451;-84
2023/06/07 11:16:45;;;;;;;17.37;14.60;;;23.20;1.00;;;;;;5059198;28;20480;-86
2023/06/07 11:19:16;;;;;;;14.03;12.30;;;23.80;99.90;;;;;;5059378;28;20475;-84
2023/06/07 11:22:06;;;;;;;17.43;14.07;;;24.40;70.10;;;;;;5059334;28;20479;-85
2023/06/07 11:24:37;;;;;;;14.17;12.77;;;24.60;1.00;;;;;;5059108;28;20448;-85
2023/06/07 11:27:11;;;;;;;15.90;13.03;;;25.10;1.00;;;;;;5059122;28;20447;-85
2023/06/07 11:29:41;;;;;;;15.30;13.37;;;25.10;1.00;;;;;;5058802;28;20460;-84
2023/06/07 11:32:10;;;;;;;16.90;13.93;;;24.90;1.00;;;;;;5058824;28;20483;-84
2023/06/07 11:34:37;;;;;;;15.23;12.50;;;24.70;1.00;;;;;;5057322;28;20456;-83
2023/06/07 11:37:11;;;;;;;16.93;13.03;;;24.60;1.00;;;;;;5058717;28;20543;-83
2023/06/07 11:39:38;;;;;;;16.20;14.47;;;24.40;99.90;;;;;;5058766;28;20455;-84
2023/06/07 11:42:06;;;;;;;15.30;13.70;;;24.10;1.00;;;;;;5057353;28;20582;-84
2023/06/07 11:44:34;;;;;;;14.40;12.90;;;24.00;1.00;;;;;;5056988;28;20979;-85
2023/06/07 11:47:05;;;;;;;13.83;12.43;;;24.10;1.00;;;;;;5061184;28;20452;-85
2023/06/07 11:49:32;;;;;;;16.57;13.97;;;24.10;99.90;;;;;;5058561;28;20458;-84
2023/06/07 11:52:00;;;;;;;16.63;13.90;;;23.90;1.00;;;;;;5058726;28;20535;-85
2023/06/07 11:54:27;;;;;;;15.60;14.00;;;24.20;99.90;;;;;;5058159;28;20819;-85
2023/06/07 11:56:54;;;;;;;14.50;13.10;;;24.50;1.00;;;;;;5058506;28;20571;-85
2023/06/07 11:59:22;;;;;;;16.13;14.47;;;24.60;99.90;;;;;;5058921;28;20876;-85
2023/06/07 12:01:52;;;;;;;18.93;16.20;;;24.50;99.90;;;;;;5058869;28;20479;-87
2023/06/07 12:04:22;;;;;;;15.80;14.13;;;24.60;99.90;;;;;;5060277;28;20452;-87
2023/06/07 12:06:49;;;;;;;17.53;13.27;;;24.50;99.90;;;;;;5060661;28;20984;-86
2023/06/07 12:09:18;;;;;;;16.20;14.50;;;24.50;99.90;;;;;;5061286;28;20475;-86
2023/06/07 12:11:46;;;;;;;16.57;14.77;;;24.50;99.90;;;;;;5060393;28;20516;-85
2023/06/07 12:14:28;;;;;;;15.17;13.63;;;24.50;99.90;;;;;;5061630;28;20854;-85
2023/06/07 12:16:55;;;;;;;17.43;15.70;;;24.50;99.90;;;;;;5062581;28;20478;-86
2023/06/07 12:19:23;;;;;;;15.10;13.67;;;24.40;99.90;;;;;;5062963;28;20984;-87
2023/06/07 12:21:50;;;;;;;17.13;15.33;;;24.20;99.90;;;;;;5061609;28;20495;-85
2023/06/07 12:24:17;;;;;;;16.27;14.70;;;24.20;99.90;;;;;;5059391;28;20456;-85
2023/06/07 12:26:43;;;;;;;14.93;13.30;;;24.20;99.90;;;;;;5059420;28;20479;-85
2023/06/07 12:29:10;;;;;;;15.30;13.10;;;24.10;99.90;;;;;;5060291;28;20483;-86
2023/06/07 12:31:41;;;;;;;13.50;12.10;;;24.20;99.90;;;;;;5059322;28;20515;-86
2023/06/07 12:34:08;;;;;;;13.80;12.40;;;24.20;1.00;;;;;;5057216;28;20539;-85
2023/06/07 12:36:39;;;;;;;17.87;16.17;;;24.20;99.90;;;;;;5058052;28;20476;-86
2023/06/07 12:39:06;;;;;;;15.97;13.60;;;24.20;99.90;;;;;;5057522;28;20855;-85
2023/06/07 12:41:33;;;;;;;15.43;13.93;;;24.30;99.90;;;;;;5056581;28;20918;-86
2023/06/07 12:44:02;;;;;;;19.17;14.40;;;24.50;99.90;;;;;;5056308;28;20530;-87
2023/06/07 12:46:29;;;;;;;14.50;13.20;;;25.00;99.90;;;;;;5061964;28;20490;-87
2023/06/07 12:48:56;;;;;;;14.70;13.03;;;25.70;99.90;;;;;;5061669;28;20459;-86
2023/06/07 12:51:23;;;;;;;16.27;13.00;;;26.20;1.00;;;;;;5060668;28;20511;-86